INFOJET
Metar trends

METAR/TAF(Classic format)(METAR/TAF Trend/History displayed directly below)
(enter CONUS apts starting with a K(eg. KMCC), enter Alaska/Hawaii apts starting with a P(eg. PANC))

Get Apt METAR code for recent obs


Get Apt METAR code for recent obs + Direct NWS Link (if METAR history doesn't display (which is often)


FAA Surface Weather Observation Stations ASOS/AWOS Readings with Map


NOAA ASOS Recent Observation History (click to select airport code)






BLU METAR history (last 5 updates)



Recent Observations METAR KBLU 272055Z AUTO 10SM CLR 16/M07 A3035 METAR KBLU 272052Z AUTO 28006KT 10SM CLR 16/M07 A3036 AO2 SLP225 T01561067 58006 METAR KBLU 272050Z AUTO 27006KT 10SM CLR 16/M07 A3036 METAR KBLU 272045Z AUTO 23006KT 10SM CLR 16/M08 A3036 METAR KBLU 272040Z AUTO 21007KT 10SM CLR 16/M10 A3036




AvnWthrCntr_BCAWS

ADDS - METARS form results

Aviation Digital Data Service (ADDS)

Output produced by METARs form (2110 UTC 27 February 2020)
found at http://bcaws.aviationweather.gov/metar/data/
 
KBLU 272052Z AUTO 28006KT 10SM CLR 16/M07 A3036 RMK AO2 SLP225 T01561067 58006
KBLU 271952Z AUTO 27004KT 10SM CLR 16/M09 A3038 RMK AO2 SLP233 T01611094
KBLU 271852Z AUTO VRB04KT 10SM CLR 16/M11 A3038 RMK AO2 SLP235 T01561106
KBLU 271752Z AUTO VRB03KT 10SM CLR 16/M12 A3038 RMK AO2 SLP236 T01561122 10156 20083 52007
KBLU 271652Z AUTO 00000KT 10SM CLR 14/M14 A3037 RMK AO2 SLP236 T01391144
KBLU 271552Z AUTO 05005KT 10SM CLR 11/M16 A3036 RMK AO2 SLP242 T01111156




5 min APT wthr

CWSU Observations






RELOAD current METAR trend





METAR Numeric Codes (usually listed after RMK)

1xxxxx___6-hr maximum temp(2nd digit=0 is positive, 1 is negative)(eg. 10405 = +40.5 degrees Celsius)

2xxxxx___6-hr minimum temp (eg. 21337 = -33.7 degrees Celsius)

4/xxx___Total snow depth in inches (eg. 4/020 = snow depth of 20 inches on ground)

4xxxxxxxx___24-hr maximum/minimum temperatures, 2nd and sixth digits equal 0 for positive and 1 for negative (eg. 401551095 = 24-hr maximum temp of +15.5 degrees Celsius and a 24-hr minimum temp of -9.5 degrees Celsius)

5xxxx___3 hour pressure tendency. The second digit gives the tendency/trend: 0–3 is rising, 4 is steady and 5–8 is falling , the last 3 digits give the pressure change in tenths of a millibar in the last 3 hours. (eg 50009 indicates a rising pressure tendency/trend of 0.9 millibars.)

6xxxx___3 or 6 hour precipitation amount. The last 4 digits are the inches of rain in hundredths. (eg. 60200 = 2 inches of rain)

7xxxx___24-hour precipitation amount. The last 4 digits are the inches of rain in hundredths. (eg. 70500 = 5 inches of rain)

8/xxx___Cloud cover using WMO code. Three digit code follows the /. Lower numbers are for clearer skies, high numbers are for overcast. (I have not seen this in the NorCal airport METARs yet).

98xxx___Duration of sunshine in minutes. The last three digits after 98 are minutes. (eg. 98120 = 120 minutes of sunshine)

931xxx___Snowfall in the last 6-hours. The last three digits display snowfall in inches and tenths. (eg. 931515 = 51.5 inches of snowfall)

933xxx___Liquid water equivalent of the snow (SWE). The last three digits display liquid water equivalent of snow in inches and tenths (eg. 933055 = 5.5 inches of liquid water in snow)


Other METAR codes
SLP155 = current barometric pressure extrapolated to sea level (SLP155 equals 1015.5 hPa)

Pxxxx = liquid-equivalent precipitation accumulated during the last hour to hundredths of inches (P0050 = .5 inch of rain in the past hour)

Txxxxxxxx is the current Temperature and Dew point. The first 4 digits are temperature. The second 4 digits are Dew Point. The first digit of each group is either 0 for above zero Celsius or 1 for below zero Celsius. (eq. T00251015 = Temp +2.5C, Dew Pt -1.5C)







KSAC





KSMF





KMHR





KMCC





KEDU





KBLU





KTRK





KTVL





KRNO





KCEC





KPDX





KSEA





William R Fairchild International (Port Angeles, WA Intl Apt) (KCLM)